sensor_id;sensor_type;location;lat;lon;timestamp;P1;durP1;ratioP1;P2;durP2;ratioP2
59960;SDS011;55902;-37.980;-63.602;2023-12-14T00:01:01;10.40;;;1.45;;
59960;SDS011;55902;-37.980;-63.602;2023-12-14T00:04:12;16.63;;;3.80;;
59960;SDS011;55902;-37.980;-63.602;2023-12-14T00:07:11;15.15;;;2.90;;
59960;SDS011;55902;-37.980;-63.602;2023-12-14T00:10:36;8.40;;;1.60;;
59960;SDS011;55902;-37.980;-63.602;2023-12-14T00:13:48;7.00;;;1.50;;
59960;SDS011;55902;-37.980;-63.602;2023-12-14T00:16:54;7.18;;;1.20;;
59960;SDS011;55902;-37.980;-63.602;2023-12-14T00:19:55;10.10;;;1.63;;
59960;SDS011;55902;-37.980;-63.602;2023-12-14T00:23:22;6.10;;;1.00;;
59960;SDS011;55902;-37.980;-63.602;2023-12-14T00:26:25;7.60;;;1.27;;
59960;SDS011;55902;-37.980;-63.602;2023-12-14T00:29:37;8.70;;;1.10;;
59960;SDS011;55902;-37.980;-63.602;2023-12-14T00:32:38;3.75;;;0.90;;
59960;SDS011;55902;-37.980;-63.602;2023-12-14T00:36:07;4.55;;;1.38;;
59960;SDS011;55902;-37.980;-63.602;2023-12-14T00:39:14;4.78;;;1.23;;
59960;SDS011;55902;-37.980;-63.602;2023-12-14T00:42:29;4.97;;;1.15;;
59960;SDS011;55902;-37.980;-63.602;2023-12-14T00:45:37;7.53;;;1.30;;
59960;SDS011;55902;-37.980;-63.602;2023-12-14T00:48:49;13.40;;;2.50;;
59960;SDS011;55902;-37.980;-63.602;2023-12-14T00:51:49;15.90;;;2.10;;
59960;SDS011;55902;-37.980;-63.602;2023-12-14T00:54:52;5.63;;;1.30;;
59960;SDS011;55902;-37.980;-63.602;2023-12-14T00:58:09;4.93;;;1.63;;
59960;SDS011;55902;-37.980;-63.602;2023-12-14T01:01:15;3.65;;;1.40;;
59960;SDS011;55902;-37.980;-63.602;2023-12-14T01:04:26;7.32;;;1.65;;
59960;SDS011;55902;-37.980;-63.602;2023-12-14T01:17:40;20.67;;;2.72;;
59960;SDS011;55902;-37.980;-63.602;2023-12-14T01:20:48;9.88;;;1.40;;
59960;SDS011;55902;-37.980;-63.602;2023-12-14T01:23:53;6.28;;;1.27;;
59960;SDS011;55902;-37.980;-63.602;2023-12-14T01:27:08;5.45;;;1.70;;
59960;SDS011;55902;-37.980;-63.602;2023-12-14T01:30:08;7.03;;;1.70;;
59960;SDS011;55902;-37.980;-63.602;2023-12-14T01:33:06;6.47;;;1.80;;
59960;SDS011;55902;-37.980;-63.602;2023-12-14T01:36:11;18.58;;;3.13;;
59960;SDS011;55902;-37.980;-63.602;2023-12-14T01:39:21;16.88;;;3.03;;
59960;SDS011;55902;-37.980;-63.602;2023-12-14T01:42:27;9.45;;;2.10;;
59960;SDS011;55902;-37.980;-63.602;2023-12-14T01:45:30;9.00;;;1.77;;
59960;SDS011;55902;-37.980;-63.602;2023-12-14T01:48:35;6.30;;;1.83;;
59960;SDS011;55902;-37.980;-63.602;2023-12-14T01:51:44;3.67;;;1.60;;
59960;SDS011;55902;-37.980;-63.602;2023-12-14T01:54:52;7.72;;;1.40;;
59960;SDS011;55902;-37.980;-63.602;2023-12-14T01:57:55;6.68;;;1.88;;
59960;SDS011;55902;-37.980;-63.602;2023-12-14T02:04:30;9.35;;;1.10;;
59960;SDS011;55902;-37.980;-63.602;2023-12-14T02:07:34;5.97;;;1.15;;
59960;SDS011;55902;-37.980;-63.602;2023-12-14T02:10:51;6.20;;;1.13;;
59960;SDS011;55902;-37.980;-63.602;2023-12-14T02:13:46;3.95;;;1.23;;
59960;SDS011;55902;-37.980;-63.602;2023-12-14T02:16:52;6.22;;;1.10;;
59960;SDS011;55902;-37.980;-63.602;2023-12-14T02:20:04;6.82;;;1.40;;
59960;SDS011;55902;-37.980;-63.602;2023-12-14T02:23:07;5.75;;;1.30;;
59960;SDS011;55902;-37.980;-63.602;2023-12-14T02:26:20;4.75;;;1.30;;
59960;SDS011;55902;-37.980;-63.602;2023-12-14T02:40:02;3.30;;;1.25;;
59960;SDS011;55902;-37.980;-63.602;2023-12-14T02:43:08;3.90;;;1.30;;
59960;SDS011;55902;-37.980;-63.602;2023-12-14T02:46:20;2.38;;;1.13;;
59960;SDS011;55902;-37.980;-63.602;2023-12-14T02:49:26;5.35;;;1.27;;
59960;SDS011;55902;-37.980;-63.602;2023-12-14T02:52:31;3.83;;;1.10;;
59960;SDS011;55902;-37.980;-63.602;2023-12-14T02:55:45;4.10;;;1.20;;
59960;SDS011;55902;-37.980;-63.602;2023-12-14T02:58:45;4.10;;;1.30;;
59960;SDS011;55902;-37.980;-63.602;2023-12-14T03:01:48;5.95;;;1.40;;
59960;SDS011;55902;-37.980;-63.602;2023-12-14T03:04:55;6.60;;;1.52;;
59960;SDS011;55902;-37.980;-63.602;2023-12-14T03:08:05;3.45;;;1.30;;
59960;SDS011;55902;-37.980;-63.602;2023-12-14T03:11:20;1.88;;;1.10;;
59960;SDS011;55902;-37.980;-63.602;2023-12-14T03:14:17;6.63;;;1.20;;
59960;SDS011;55902;-37.980;-63.602;2023-12-14T03:17:24;3.92;;;1.10;;
59960;SDS011;55902;-37.980;-63.602;2023-12-14T03:23:37;3.42;;;1.23;;
59960;SDS011;55902;-37.980;-63.602;2023-12-14T03:26:43;3.70;;;1.10;;
59960;SDS011;55902;-37.980;-63.602;2023-12-14T03:29:55;4.47;;;1.05;;
59960;SDS011;55902;-37.980;-63.602;2023-12-14T03:33:06;1.92;;;1.13;;
59960;SDS011;55902;-37.980;-63.602;2023-12-14T03:36:12;3.10;;;1.23;;
59960;SDS011;55902;-37.980;-63.602;2023-12-14T03:39:25;4.95;;;1.20;;
59960;SDS011;55902;-37.980;-63.602;2023-12-14T03:42:43;4.43;;;1.30;;
59960;SDS011;55902;-37.980;-63.602;2023-12-14T03:46:00;6.13;;;1.42;;
59960;SDS011;55902;-37.980;-63.602;2023-12-14T03:49:26;6.43;;;1.40;;
59960;SDS011;55902;-37.980;-63.602;2023-12-14T03:52:44;4.88;;;1.58;;
59960;SDS011;55902;-37.980;-63.602;2023-12-14T03:56:04;6.97;;;1.40;;
59960;SDS011;55902;-37.980;-63.602;2023-12-14T03:59:08;3.42;;;1.42;;
59960;SDS011;55902;-37.980;-63.602;2023-12-14T04:02:08;5.45;;;1.20;;
59960;SDS011;55902;-37.980;-63.602;2023-12-14T04:05:10;3.83;;;1.60;;
59960;SDS011;55902;-37.980;-63.602;2023-12-14T04:11:48;4.22;;;1.40;;
59960;SDS011;55902;-37.980;-63.602;2023-12-14T04:14:52;5.97;;;1.30;;
59960;SDS011;55902;-37.980;-63.602;2023-12-14T04:18:03;5.65;;;1.48;;
59960;SDS011;55902;-37.980;-63.602;2023-12-14T04:21:14;2.00;;;1.20;;
59960;SDS011;55902;-37.980;-63.602;2023-12-14T04:24:18;3.17;;;1.40;;
59960;SDS011;55902;-37.980;-63.602;2023-12-14T04:27:30;2.88;;;1.20;;
59960;SDS011;55902;-37.980;-63.602;2023-12-14T04:40:46;5.28;;;1.50;;
59960;SDS011;55902;-37.980;-63.602;2023-12-14T04:47:10;7.85;;;2.33;;
59960;SDS011;55902;-37.980;-63.602;2023-12-14T04:50:19;8.93;;;2.33;;
59960;SDS011;55902;-37.980;-63.602;2023-12-14T04:53:18;14.57;;;2.90;;
59960;SDS011;55902;-37.980;-63.602;2023-12-14T04:56:22;14.55;;;3.25;;
59960;SDS011;55902;-37.980;-63.602;2023-12-14T04:59:31;12.80;;;2.65;;
59960;SDS011;55902;-37.980;-63.602;2023-12-14T05:02:40;11.13;;;2.33;;
59960;SDS011;55902;-37.980;-63.602;2023-12-14T05:05:51;7.35;;;2.42;;
59960;SDS011;55902;-37.980;-63.602;2023-12-14T05:12:07;11.65;;;3.45;;
59960;SDS011;55902;-37.980;-63.602;2023-12-14T05:15:18;13.13;;;3.10;;
59960;SDS011;55902;-37.980;-63.602;2023-12-14T05:18:21;6.68;;;3.20;;
59960;SDS011;55902;-37.980;-63.602;2023-12-14T05:21:25;9.07;;;2.80;;
59960;SDS011;55902;-37.980;-63.602;2023-12-14T05:24:21;11.48;;;2.70;;
59960;SDS011;55902;-37.980;-63.602;2023-12-14T05:27:30;8.32;;;2.75;;
59960;SDS011;55902;-37.980;-63.602;2023-12-14T05:30:35;13.30;;;3.53;;
59960;SDS011;55902;-37.980;-63.602;2023-12-14T05:33:46;9.95;;;2.85;;
59960;SDS011;55902;-37.980;-63.602;2023-12-14T05:36:58;6.63;;;2.13;;
59960;SDS011;55902;-37.980;-63.602;2023-12-14T05:40:09;5.50;;;2.25;;
59960;SDS011;55902;-37.980;-63.602;2023-12-14T05:43:13;5.00;;;2.00;;
59960;SDS011;55902;-37.980;-63.602;2023-12-14T05:49:34;11.02;;;2.30;;
59960;SDS011;55902;-37.980;-63.602;2023-12-14T05:52:44;6.28;;;2.15;;
59960;SDS011;55902;-37.980;-63.602;2023-12-14T05:55:55;8.77;;;2.95;;
59960;SDS011;55902;-37.980;-63.602;2023-12-14T05:59:03;8.80;;;2.60;;
59960;SDS011;55902;-37.980;-63.602;2023-12-14T06:02:08;9.57;;;2.60;;
59960;SDS011;55902;-37.980;-63.602;2023-12-14T06:05:12;6.53;;;2.15;;
59960;SDS011;55902;-37.980;-63.602;2023-12-14T06:08:24;6.97;;;2.30;;
59960;SDS011;55902;-37.980;-63.602;2023-12-14T06:11:23;7.60;;;2.65;;
59960;SDS011;55902;-37.980;-63.602;2023-12-14T06:14:32;5.70;;;2.20;;
59960;SDS011;55902;-37.980;-63.602;2023-12-14T06:17:37;5.75;;;2.10;;
59960;SDS011;55902;-37.980;-63.602;2023-12-14T06:20:34;8.20;;;2.70;;
59960;SDS011;55902;-37.980;-63.602;2023-12-14T06:23:42;6.22;;;2.40;;
59960;SDS011;55902;-37.980;-63.602;2023-12-14T06:26:47;8.10;;;2.30;;
59960;SDS011;55902;-37.980;-63.602;2023-12-14T06:29:49;5.90;;;2.13;;
59960;SDS011;55902;-37.980;-63.602;2023-12-14T06:33:00;8.95;;;2.60;;
59960;SDS011;55902;-37.980;-63.602;2023-12-14T06:35:54;10.43;;;2.38;;
59960;SDS011;55902;-37.980;-63.602;2023-12-14T06:39:06;8.25;;;2.45;;
59960;SDS011;55902;-37.980;-63.602;2023-12-14T06:42:13;8.23;;;2.65;;
59960;SDS011;55902;-37.980;-63.602;2023-12-14T06:45:23;9.18;;;2.55;;
59960;SDS011;55902;-37.980;-63.602;2023-12-14T06:48:27;6.97;;;2.38;;
59960;SDS011;55902;-37.980;-63.602;2023-12-14T06:51:32;5.43;;;2.35;;
59960;SDS011;55902;-37.980;-63.602;2023-12-14T06:54:29;6.15;;;2.30;;
59960;SDS011;55902;-37.980;-63.602;2023-12-14T06:57:24;6.18;;;2.53;;
59960;SDS011;55902;-37.980;-63.602;2023-12-14T07:00:35;7.22;;;2.40;;
59960;SDS011;55902;-37.980;-63.602;2023-12-14T07:06:58;6.57;;;2.38;;
59960;SDS011;55902;-37.980;-63.602;2023-12-14T07:13:11;6.15;;;1.98;;
59960;SDS011;55902;-37.980;-63.602;2023-12-14T07:16:16;6.78;;;2.20;;
59960;SDS011;55902;-37.980;-63.602;2023-12-14T07:19:18;8.07;;;2.45;;
59960;SDS011;55902;-37.980;-63.602;2023-12-14T07:22:20;7.32;;;2.15;;
59960;SDS011;55902;-37.980;-63.602;2023-12-14T07:25:22;6.20;;;2.10;;
59960;SDS011;55902;-37.980;-63.602;2023-12-14T07:28:32;4.35;;;2.13;;
59960;SDS011;55902;-37.980;-63.602;2023-12-14T07:38:19;5.25;;;1.80;;
59960;SDS011;55902;-37.980;-63.602;2023-12-14T07:41:23;4.78;;;1.90;;
59960;SDS011;55902;-37.980;-63.602;2023-12-14T07:44:26;3.83;;;1.50;;
59960;SDS011;55902;-37.980;-63.602;2023-12-14T07:47:30;3.55;;;1.50;;
59960;SDS011;55902;-37.980;-63.602;2023-12-14T07:50:32;3.63;;;1.52;;
59960;SDS011;55902;-37.980;-63.602;2023-12-14T07:53:29;3.25;;;1.40;;
59960;SDS011;55902;-37.980;-63.602;2023-12-14T07:56:27;4.22;;;1.52;;
59960;SDS011;55902;-37.980;-63.602;2023-12-14T07:59:31;5.30;;;1.65;;
59960;SDS011;55902;-37.980;-63.602;2023-12-14T08:02:35;3.63;;;1.40;;
59960;SDS011;55902;-37.980;-63.602;2023-12-14T08:05:39;2.90;;;1.38;;
59960;SDS011;55902;-37.980;-63.602;2023-12-14T08:08:47;3.50;;;1.48;;
59960;SDS011;55902;-37.980;-63.602;2023-12-14T08:11:56;6.72;;;1.58;;
59960;SDS011;55902;-37.980;-63.602;2023-12-14T08:15:07;3.13;;;1.48;;
59960;SDS011;55902;-37.980;-63.602;2023-12-14T08:18:13;5.95;;;1.58;;
59960;SDS011;55902;-37.980;-63.602;2023-12-14T08:21:24;5.20;;;1.55;;
59960;SDS011;55902;-37.980;-63.602;2023-12-14T08:24:29;5.80;;;1.60;;
59960;SDS011;55902;-37.980;-63.602;2023-12-14T08:27:41;3.70;;;1.60;;
59960;SDS011;55902;-37.980;-63.602;2023-12-14T08:30:45;3.78;;;1.50;;
59960;SDS011;55902;-37.980;-63.602;2023-12-14T08:34:03;5.13;;;1.52;;
59960;SDS011;55902;-37.980;-63.602;2023-12-14T08:37:06;4.05;;;1.52;;
59960;SDS011;55902;-37.980;-63.602;2023-12-14T08:40:13;4.80;;;1.60;;
59960;SDS011;55902;-37.980;-63.602;2023-12-14T08:43:24;3.20;;;1.50;;
59960;SDS011;55902;-37.980;-63.602;2023-12-14T08:46:26;4.05;;;1.50;;
59960;SDS011;55902;-37.980;-63.602;2023-12-14T08:49:40;5.05;;;1.70;;
59960;SDS011;55902;-37.980;-63.602;2023-12-14T08:52:52;4.45;;;1.40;;
59960;SDS011;55902;-37.980;-63.602;2023-12-14T08:56:03;4.75;;;1.50;;
59960;SDS011;55902;-37.980;-63.602;2023-12-14T08:59:09;5.00;;;1.50;;
59960;SDS011;55902;-37.980;-63.602;2023-12-14T09:02:13;1.90;;;1.40;;
59960;SDS011;55902;-37.980;-63.602;2023-12-14T09:05:22;2.20;;;1.48;;
59960;SDS011;55902;-37.980;-63.602;2023-12-14T09:08:40;5.13;;;1.50;;
59960;SDS011;55902;-37.980;-63.602;2023-12-14T09:11:50;8.90;;;1.67;;
59960;SDS011;55902;-37.980;-63.602;2023-12-14T09:18:10;5.10;;;1.27;;
59960;SDS011;55902;-37.980;-63.602;2023-12-14T09:21:22;2.78;;;1.40;;
59960;SDS011;55902;-37.980;-63.602;2023-12-14T09:24:26;6.25;;;1.63;;
59960;SDS011;55902;-37.980;-63.602;2023-12-14T09:27:40;3.60;;;1.50;;
59960;SDS011;55902;-37.980;-63.602;2023-12-14T09:30:50;2.72;;;1.48;;
59960;SDS011;55902;-37.980;-63.602;2023-12-14T09:33:59;5.78;;;1.60;;
59960;SDS011;55902;-37.980;-63.602;2023-12-14T09:37:08;6.20;;;1.60;;
59960;SDS011;55902;-37.980;-63.602;2023-12-14T09:40:19;3.63;;;1.60;;
59960;SDS011;55902;-37.980;-63.602;2023-12-14T09:43:28;4.07;;;1.50;;
59960;SDS011;55902;-37.980;-63.602;2023-12-14T09:46:33;2.38;;;1.38;;
59960;SDS011;55902;-37.980;-63.602;2023-12-14T09:49:42;4.55;;;1.50;;
59960;SDS011;55902;-37.980;-63.602;2023-12-14T09:52:48;5.68;;;1.90;;
59960;SDS011;55902;-37.980;-63.602;2023-12-14T09:55:58;4.90;;;1.50;;
59960;SDS011;55902;-37.980;-63.602;2023-12-14T10:05:30;3.80;;;1.52;;
59960;SDS011;55902;-37.980;-63.602;2023-12-14T10:08:41;7.43;;;1.60;;
59960;SDS011;55902;-37.980;-63.602;2023-12-14T10:11:49;3.75;;;1.65;;
59960;SDS011;55902;-37.980;-63.602;2023-12-14T10:14:59;3.95;;;1.50;;
59960;SDS011;55902;-37.980;-63.602;2023-12-14T10:18:11;5.00;;;1.60;;
59960;SDS011;55902;-37.980;-63.602;2023-12-14T10:21:24;8.35;;;1.70;;
59960;SDS011;55902;-37.980;-63.602;2023-12-14T10:24:28;5.88;;;1.90;;
59960;SDS011;55902;-37.980;-63.602;2023-12-14T10:27:53;6.30;;;1.80;;
59960;SDS011;55902;-37.980;-63.602;2023-12-14T10:30:56;7.45;;;2.15;;
59960;SDS011;55902;-37.980;-63.602;2023-12-14T10:34:02;6.53;;;2.17;;
59960;SDS011;55902;-37.980;-63.602;2023-12-14T10:37:09;5.53;;;2.10;;
59960;SDS011;55902;-37.980;-63.602;2023-12-14T10:40:21;4.88;;;2.10;;
59960;SDS011;55902;-37.980;-63.602;2023-12-14T10:43:27;11.05;;;2.30;;
59960;SDS011;55902;-37.980;-63.602;2023-12-14T10:46:39;10.32;;;2.13;;
59960;SDS011;55902;-37.980;-63.602;2023-12-14T10:49:42;8.10;;;2.30;;
59960;SDS011;55902;-37.980;-63.602;2023-12-14T10:52:55;6.72;;;2.40;;
59960;SDS011;55902;-37.980;-63.602;2023-12-14T10:59:08;7.65;;;2.30;;
59960;SDS011;55902;-37.980;-63.602;2023-12-14T11:02:26;8.68;;;2.20;;
59960;SDS011;55902;-37.980;-63.602;2023-12-14T11:05:39;6.07;;;2.30;;
59960;SDS011;55902;-37.980;-63.602;2023-12-14T11:08:49;6.00;;;2.20;;
59960;SDS011;55902;-37.980;-63.602;2023-12-14T11:11:59;10.18;;;2.40;;
59960;SDS011;55902;-37.980;-63.602;2023-12-14T11:15:07;4.57;;;1.80;;
59960;SDS011;55902;-37.980;-63.602;2023-12-14T11:18:25;5.15;;;1.92;;
59960;SDS011;55902;-37.980;-63.602;2023-12-14T11:21:36;5.60;;;1.77;;
59960;SDS011;55902;-37.980;-63.602;2023-12-14T11:30:48;9.20;;;2.00;;
59960;SDS011;55902;-37.980;-63.602;2023-12-14T11:33:18;7.72;;;2.28;;
59960;SDS011;55902;-37.980;-63.602;2023-12-14T11:35:47;5.57;;;1.77;;
59960;SDS011;55902;-37.980;-63.602;2023-12-14T11:38:16;11.13;;;2.40;;
59960;SDS011;55902;-37.980;-63.602;2023-12-14T11:40:43;8.32;;;2.10;;
59960;SDS011;55902;-37.980;-63.602;2023-12-14T11:43:11;11.07;;;1.98;;
59960;SDS011;55902;-37.980;-63.602;2023-12-14T11:45:39;6.53;;;2.00;;
59960;SDS011;55902;-37.980;-63.602;2023-12-14T11:48:07;9.80;;;2.22;;
59960;SDS011;55902;-37.980;-63.602;2023-12-14T11:50:40;8.13;;;2.05;;
59960;SDS011;55902;-37.980;-63.602;2023-12-14T11:53:12;15.38;;;2.55;;
59960;SDS011;55902;-37.980;-63.602;2023-12-14T11:55:40;10.57;;;2.40;;
59960;SDS011;55902;-37.980;-63.602;2023-12-14T11:58:10;7.75;;;2.28;;
59960;SDS011;55902;-37.980;-63.602;2023-12-14T12:00:42;9.77;;;2.63;;
59960;SDS011;55902;-37.980;-63.602;2023-12-14T12:03:18;8.25;;;2.50;;
59960;SDS011;55902;-37.980;-63.602;2023-12-14T12:05:50;17.60;;;4.40;;
59960;SDS011;55902;-37.980;-63.602;2023-12-14T12:08:18;13.55;;;3.22;;
59960;SDS011;55902;-37.980;-63.602;2023-12-14T12:10:47;11.88;;;4.05;;
59960;SDS011;55902;-37.980;-63.602;2023-12-14T12:13:16;16.88;;;3.85;;
59960;SDS011;55902;-37.980;-63.602;2023-12-14T12:15:48;17.20;;;3.78;;
59960;SDS011;55902;-37.980;-63.602;2023-12-14T12:18:21;16.88;;;4.07;;
59960;SDS011;55902;-37.980;-63.602;2023-12-14T12:20:51;9.97;;;4.13;;
59960;SDS011;55902;-37.980;-63.602;2023-12-14T12:23:19;10.85;;;3.40;;
59960;SDS011;55902;-37.980;-63.602;2023-12-14T12:25:46;11.20;;;3.90;;
59960;SDS011;55902;-37.980;-63.602;2023-12-14T12:28:13;10.85;;;3.75;;
59960;SDS011;55902;-37.980;-63.602;2023-12-14T12:30:40;11.77;;;4.10;;
59960;SDS011;55902;-37.980;-63.602;2023-12-14T12:33:08;8.95;;;3.30;;
59960;SDS011;55902;-37.980;-63.602;2023-12-14T12:35:35;8.70;;;3.30;;
59960;SDS011;55902;-37.980;-63.602;2023-12-14T12:38:05;11.95;;;3.53;;
59960;SDS011;55902;-37.980;-63.602;2023-12-14T12:40:53;11.30;;;4.40;;
59960;SDS011;55902;-37.980;-63.602;2023-12-14T12:43:26;12.85;;;4.05;;
59960;SDS011;55902;-37.980;-63.602;2023-12-14T12:45:53;9.98;;;3.67;;
59960;SDS011;55902;-37.980;-63.602;2023-12-14T12:48:20;7.80;;;3.25;;
59960;SDS011;55902;-37.980;-63.602;2023-12-14T12:50:47;10.48;;;3.45;;
59960;SDS011;55902;-37.980;-63.602;2023-12-14T12:53:15;9.40;;;3.55;;
59960;SDS011;55902;-37.980;-63.602;2023-12-14T12:55:42;8.73;;;3.45;;
59960;SDS011;55902;-37.980;-63.602;2023-12-14T12:58:09;7.75;;;3.42;;
59960;SDS011;55902;-37.980;-63.602;2023-12-14T13:00:59;9.48;;;3.40;;
59960;SDS011;55902;-37.980;-63.602;2023-12-14T13:03:52;10.13;;;3.38;;
59960;SDS011;55902;-37.980;-63.602;2023-12-14T13:06:21;14.63;;;3.55;;
59960;SDS011;55902;-37.980;-63.602;2023-12-14T13:08:51;23.13;;;4.03;;
59960;SDS011;55902;-37.980;-63.602;2023-12-14T13:11:19;20.33;;;4.22;;
59960;SDS011;55902;-37.980;-63.602;2023-12-14T13:13:56;11.82;;;4.30;;
59960;SDS011;55902;-37.980;-63.602;2023-12-14T13:16:44;12.10;;;4.22;;
59960;SDS011;55902;-37.980;-63.602;2023-12-14T13:19:13;15.10;;;4.75;;
59960;SDS011;55902;-37.980;-63.602;2023-12-14T13:21:41;13.00;;;4.20;;
59960;SDS011;55902;-37.980;-63.602;2023-12-14T13:24:11;12.93;;;4.50;;
59960;SDS011;55902;-37.980;-63.602;2023-12-14T13:26:39;11.73;;;4.00;;
59960;SDS011;55902;-37.980;-63.602;2023-12-14T13:32:14;13.27;;;4.20;;
59960;SDS011;55902;-37.980;-63.602;2023-12-14T13:34:57;8.50;;;3.97;;
59960;SDS011;55902;-37.980;-63.602;2023-12-14T13:37:28;9.00;;;3.70;;
59960;SDS011;55902;-37.980;-63.602;2023-12-14T13:39:57;15.88;;;4.22;;
59960;SDS011;55902;-37.980;-63.602;2023-12-14T13:42:24;11.18;;;3.80;;
59960;SDS011;55902;-37.980;-63.602;2023-12-14T13:44:51;10.70;;;4.32;;
59960;SDS011;55902;-37.980;-63.602;2023-12-14T13:47:18;11.40;;;4.20;;
59960;SDS011;55902;-37.980;-63.602;2023-12-14T13:49:45;10.45;;;4.55;;
59960;SDS011;55902;-37.980;-63.602;2023-12-14T13:52:20;12.50;;;4.28;;
59960;SDS011;55902;-37.980;-63.602;2023-12-14T13:54:52;8.38;;;3.90;;
59960;SDS011;55902;-37.980;-63.602;2023-12-14T13:57:24;7.68;;;4.00;;
59960;SDS011;55902;-37.980;-63.602;2023-12-14T13:59:53;11.90;;;4.20;;
59960;SDS011;55902;-37.980;-63.602;2023-12-14T14:02:20;8.55;;;4.25;;
59960;SDS011;55902;-37.980;-63.602;2023-12-14T14:04:50;10.00;;;4.00;;
59960;SDS011;55902;-37.980;-63.602;2023-12-14T14:07:17;9.90;;;4.53;;
59960;SDS011;55902;-37.980;-63.602;2023-12-14T14:09:44;9.30;;;3.95;;
59960;SDS011;55902;-37.980;-63.602;2023-12-14T14:12:32;8.75;;;4.68;;
59960;SDS011;55902;-37.980;-63.602;2023-12-14T14:14:59;7.65;;;4.03;;
59960;SDS011;55902;-37.980;-63.602;2023-12-14T14:17:26;11.48;;;4.70;;
59960;SDS011;55902;-37.980;-63.602;2023-12-14T14:19:53;11.45;;;4.00;;
59960;SDS011;55902;-37.980;-63.602;2023-12-14T14:22:20;9.93;;;4.53;;
59960;SDS011;55902;-37.980;-63.602;2023-12-14T14:24:47;9.90;;;4.07;;
59960;SDS011;55902;-37.980;-63.602;2023-12-14T14:27:15;11.63;;;4.15;;
59960;SDS011;55902;-37.980;-63.602;2023-12-14T14:29:42;9.57;;;4.10;;
59960;SDS011;55902;-37.980;-63.602;2023-12-14T14:33:12;15.52;;;4.07;;
59960;SDS011;55902;-37.980;-63.602;2023-12-14T14:36:00;13.45;;;3.88;;
59960;SDS011;55902;-37.980;-63.602;2023-12-14T14:38:47;11.70;;;3.90;;
59960;SDS011;55902;-37.980;-63.602;2023-12-14T14:41:14;8.55;;;3.33;;
59960;SDS011;55902;-37.980;-63.602;2023-12-14T14:43:40;8.80;;;4.13;;
59960;SDS011;55902;-37.980;-63.602;2023-12-14T14:46:08;10.50;;;3.90;;
59960;SDS011;55902;-37.980;-63.602;2023-12-14T14:48:35;8.10;;;3.70;;
59960;SDS011;55902;-37.980;-63.602;2023-12-14T14:51:03;11.65;;;3.75;;
59960;SDS011;55902;-37.980;-63.602;2023-12-14T14:53:30;9.68;;;3.53;;
59960;SDS011;55902;-37.980;-63.602;2023-12-14T14:55:57;7.43;;;2.92;;
59960;SDS011;55902;-37.980;-63.602;2023-12-14T14:58:24;9.60;;;3.38;;
59960;SDS011;55902;-37.980;-63.602;2023-12-14T15:00:51;18.25;;;3.95;;
59960;SDS011;55902;-37.980;-63.602;2023-12-14T15:03:18;12.52;;;3.92;;
59960;SDS011;55902;-37.980;-63.602;2023-12-14T15:05:47;12.35;;;3.20;;
59960;SDS011;55902;-37.980;-63.602;2023-12-14T15:08:14;10.88;;;3.10;;
59960;SDS011;55902;-37.980;-63.602;2023-12-14T15:10:41;7.07;;;2.95;;
59960;SDS011;55902;-37.980;-63.602;2023-12-14T15:13:08;7.50;;;2.75;;
59960;SDS011;55902;-37.980;-63.602;2023-12-14T15:15:35;8.15;;;2.60;;
59960;SDS011;55902;-37.980;-63.602;2023-12-14T15:18:05;7.93;;;2.67;;
59960;SDS011;55902;-37.980;-63.602;2023-12-14T15:20:38;7.18;;;2.53;;
59960;SDS011;55902;-37.980;-63.602;2023-12-14T15:23:07;7.75;;;2.92;;
59960;SDS011;55902;-37.980;-63.602;2023-12-14T15:25:35;6.93;;;2.97;;
59960;SDS011;55902;-37.980;-63.602;2023-12-14T15:28:02;6.38;;;2.45;;
59960;SDS011;55902;-37.980;-63.602;2023-12-14T15:30:30;7.93;;;2.50;;
59960;SDS011;55902;-37.980;-63.602;2023-12-14T15:32:57;11.98;;;2.50;;
59960;SDS011;55902;-37.980;-63.602;2023-12-14T15:35:24;12.15;;;2.50;;
59960;SDS011;55902;-37.980;-63.602;2023-12-14T15:37:51;11.95;;;2.42;;
59960;SDS011;55902;-37.980;-63.602;2023-12-14T15:40:18;12.90;;;2.92;;
59960;SDS011;55902;-37.980;-63.602;2023-12-14T15:42:46;11.20;;;2.65;;
59960;SDS011;55902;-37.980;-63.602;2023-12-14T15:45:17;8.10;;;2.35;;
59960;SDS011;55902;-37.980;-63.602;2023-12-14T15:47:46;12.63;;;3.03;;
59960;SDS011;55902;-37.980;-63.602;2023-12-14T15:50:14;11.75;;;2.70;;
59960;SDS011;55902;-37.980;-63.602;2023-12-14T15:52:41;8.23;;;2.42;;
59960;SDS011;55902;-37.980;-63.602;2023-12-14T15:55:08;8.27;;;2.33;;
59960;SDS011;55902;-37.980;-63.602;2023-12-14T15:57:35;10.52;;;2.90;;
59960;SDS011;55902;-37.980;-63.602;2023-12-14T16:00:03;12.52;;;2.53;;
59960;SDS011;55902;-37.980;-63.602;2023-12-14T16:02:33;15.68;;;3.33;;
59960;SDS011;55902;-37.980;-63.602;2023-12-14T16:05:00;12.35;;;2.60;;
59960;SDS011;55902;-37.980;-63.602;2023-12-14T16:07:27;10.95;;;3.08;;
59960;SDS011;55902;-37.980;-63.602;2023-12-14T16:09:54;28.95;;;5.03;;
59960;SDS011;55902;-37.980;-63.602;2023-12-14T16:12:21;16.83;;;2.92;;
59960;SDS011;55902;-37.980;-63.602;2023-12-14T16:14:49;8.43;;;2.65;;
59960;SDS011;55902;-37.980;-63.602;2023-12-14T16:17:24;12.50;;;3.13;;
59960;SDS011;55902;-37.980;-63.602;2023-12-14T16:19:53;25.23;;;3.90;;
59960;SDS011;55902;-37.980;-63.602;2023-12-14T16:22:21;14.32;;;3.00;;
59960;SDS011;55902;-37.980;-63.602;2023-12-14T16:24:48;28.10;;;4.00;;
59960;SDS011;55902;-37.980;-63.602;2023-12-14T16:27:15;32.10;;;4.40;;
59960;SDS011;55902;-37.980;-63.602;2023-12-14T16:29:46;19.10;;;3.30;;
59960;SDS011;55902;-37.980;-63.602;2023-12-14T16:32:17;17.48;;;3.20;;
59960;SDS011;55902;-37.980;-63.602;2023-12-14T16:34:43;13.07;;;3.08;;
59960;SDS011;55902;-37.980;-63.602;2023-12-14T16:37:10;20.00;;;3.22;;
59960;SDS011;55902;-37.980;-63.602;2023-12-14T16:39:40;20.38;;;2.83;;
59960;SDS011;55902;-37.980;-63.602;2023-12-14T16:42:11;13.50;;;2.78;;
59960;SDS011;55902;-37.980;-63.602;2023-12-14T16:44:42;15.32;;;3.42;;
59960;SDS011;55902;-37.980;-63.602;2023-12-14T16:47:09;17.60;;;3.03;;
59960;SDS011;55902;-37.980;-63.602;2023-12-14T16:49:38;16.58;;;3.22;;
59960;SDS011;55902;-37.980;-63.602;2023-12-14T16:52:07;12.88;;;3.33;;
59960;SDS011;55902;-37.980;-63.602;2023-12-14T16:54:36;15.35;;;3.30;;
59960;SDS011;55902;-37.980;-63.602;2023-12-14T16:57:03;17.70;;;2.97;;
59960;SDS011;55902;-37.980;-63.602;2023-12-14T16:59:30;19.48;;;3.90;;
59960;SDS011;55902;-37.980;-63.602;2023-12-14T17:01:57;18.27;;;3.83;;
59960;SDS011;55902;-37.980;-63.602;2023-12-14T17:04:24;12.57;;;3.33;;
59960;SDS011;55902;-37.980;-63.602;2023-12-14T17:06:51;13.57;;;3.60;;
59960;SDS011;55902;-37.980;-63.602;2023-12-14T17:09:18;15.30;;;3.75;;
59960;SDS011;55902;-37.980;-63.602;2023-12-14T17:11:53;15.70;;;3.75;;
59960;SDS011;55902;-37.980;-63.602;2023-12-14T17:14:20;13.48;;;3.50;;
59960;SDS011;55902;-37.980;-63.602;2023-12-14T17:16:48;36.35;;;4.70;;
59960;SDS011;55902;-37.980;-63.602;2023-12-14T17:19:15;22.40;;;3.72;;
59960;SDS011;55902;-37.980;-63.602;2023-12-14T17:21:42;10.95;;;2.75;;
59960;SDS011;55902;-37.980;-63.602;2023-12-14T17:24:10;6.60;;;2.20;;
59960;SDS011;55902;-37.980;-63.602;2023-12-14T17:26:37;8.30;;;2.10;;
59960;SDS011;55902;-37.980;-63.602;2023-12-14T17:29:04;5.50;;;2.33;;
59960;SDS011;55902;-37.980;-63.602;2023-12-14T17:31:37;4.27;;;1.50;;
59960;SDS011;55902;-37.980;-63.602;2023-12-14T17:34:05;4.25;;;1.30;;
59960;SDS011;55902;-37.980;-63.602;2023-12-14T17:36:32;6.30;;;1.80;;
59960;SDS011;55902;-37.980;-63.602;2023-12-14T17:39:02;7.15;;;2.40;;
59960;SDS011;55902;-37.980;-63.602;2023-12-14T17:41:29;7.35;;;2.38;;
59960;SDS011;55902;-37.980;-63.602;2023-12-14T17:43:56;7.78;;;2.72;;
59960;SDS011;55902;-37.980;-63.602;2023-12-14T17:46:23;9.52;;;3.45;;